This is the latest recevied weather packets stored in our database for station/object KF7SOJ. If no packets are shown the sender has not sent any weather packets the latest 10 day(s).
| Time | Temp. | Humidity | Pressure | Rain* | Wind** | Luminosity | Snow |
|---|---|---|---|---|---|---|---|
| 1777894347 | 7.22° C | 56% | 930.1 hPa | 0 mm | - | 0 W/m² | - |
| 1777894044 | 7.22° C | 55% | 930 hPa | 0 mm | - | 0 W/m² | - |
| 1777893740 | 7.22° C | 54% | 929.9 hPa | 0 mm | - | 0 W/m² | - |
| 1777893437 | 7.22° C | 55% | 929.8 hPa | 0 mm | - | 0 W/m² | - |
| 1777893134 | 7.22° C | 55% | 929.7 hPa | 0 mm | - | 0 W/m² | - |
| 1777892830 | 7.22° C | 55% | 929.6 hPa | 0 mm | - | 0 W/m² | - |
| 1777892527 | 7.22° C | 54% | 929.6 hPa | 0 mm | - | 0 W/m² | - |
| 1777892222 | 7.22° C | 53% | 929.4 hPa | 0 mm | - | 0 W/m² | - |
| 1777891919 | 7.22° C | 54% | 929.1 hPa | 0 mm | - | 0 W/m² | - |
| 1777891617 | 7.22° C | 54% | 929.1 hPa | 0 mm | - | 0 W/m² | - |
| 1777891313 | 6.67° C | 55% | 929.2 hPa | 0 mm | - | 0 W/m² | - |
| 1777891008 | 6.67° C | 56% | 929.1 hPa | 0 mm | - | 0 W/m² | - |
| 1777890708 | 6.67° C | 57% | 929.2 hPa | 0 mm | - | 0 W/m² | - |
| 1777890404 | 6.67° C | 57% | 929 hPa | 0 mm | - | 0 W/m² | - |
| 1777890100 | 7.22° C | 55% | 928.8 hPa | 0 mm | - | 0 W/m² | - |
| 1777889798 | 7.78° C | 54% | 928.6 hPa | 0 mm | - | 0 W/m² | - |
| 1777889495 | 7.78° C | 54% | 928.5 hPa | 0 mm | - | 0 W/m² | - |
| 1777889192 | 7.78° C | 54% | 928.6 hPa | 0 mm | - | 0 W/m² | - |
| 1777888891 | 7.78° C | 55% | 928.4 hPa | 0 mm | - | 0 W/m² | - |
| 1777888586 | 7.22° C | 56% | 928.4 hPa | 0 mm | - | 0 W/m² | - |
| 1777888282 | 7.78° C | 55% | 928.1 hPa | 0 mm | - | 0 W/m² | - |
| 1777887979 | 7.78° C | 55% | 928 hPa | 0 mm | - | 0 W/m² | - |
| 1777887677 | 8.33° C | 53% | 928 hPa | 0 mm | - | 0 W/m² | - |
| 1777887373 | 8.89° C | 51% | 927.7 hPa | 0 mm | - | 0 W/m² | - |
| 1777887069 | 9.44° C | 49% | 927.6 hPa | 0 mm | - | 0 W/m² | - |
* Rain latest hour (hover to see other rain measurements)
** Current wind speed in m/s (hover to see current wind gust speed)